LZB971 LBSF-LBWN
Flight info
| Callsign | LZB971 |
|---|---|
| Flight time | 0h 48m |
| Altitude | 25000 |
| Route | UMPIT4S/09 UMPIT T343 TOTKA |
| Aircraft | A320/M-SDE3FGHIRWY/LB1 |
Departure
| Time | 2026-04-27 18:59 |
|---|---|
| Airport | Sofia Airport (LBSF) |
Arrival
| Time | 2026-04-27 19:48 |
|---|---|
| Airport | Varna Airport (LBWN) |
| Time | Latitude | Longitude | Altitude | Speed | Heading |
|---|---|---|---|---|---|
| 2026-04-27 18:41 | 42.69110 | 23.41283 | 1750 ft | 0 kts | 72° |
| 2026-04-27 18:50 | 42.69110 | 23.41282 | 1750 ft | 2 kts | 72° |
| 2026-04-27 18:50 | 42.69105 | 23.41260 | 1741 ft | 2 kts | 72° |
| 2026-04-27 18:50 | 42.69102 | 23.41238 | 1743 ft | 2 kts | 89° |
| 2026-04-27 18:51 | 42.69096 | 23.41217 | 1740 ft | 2 kts | 17° |
| 2026-04-27 18:51 | 42.69087 | 23.41215 | 1742 ft | 0 kts | 340° |
| 2026-04-27 18:53 | 42.69095 | 23.41211 | 1740 ft | 4 kts | 341° |
| 2026-04-27 18:53 | 42.69144 | 23.41186 | 1748 ft | 11 kts | 336° |
| 2026-04-27 18:53 | 42.69233 | 23.41153 | 1744 ft | 16 kts | 2° |
| 2026-04-27 18:53 | 42.69352 | 23.41183 | 1750 ft | 18 kts | 12° |
| 2026-04-27 18:54 | 42.69468 | 23.41196 | 1743 ft | 15 kts | 336° |
| 2026-04-27 18:54 | 42.69499 | 23.41082 | 1749 ft | 13 kts | 276° |
| 2026-04-27 18:54 | 42.69504 | 23.40971 | 1749 ft | 11 kts | 275° |
| 2026-04-27 18:54 | 42.69511 | 23.40873 | 1743 ft | 10 kts | 274° |
| 2026-04-27 18:55 | 42.69515 | 23.40787 | 1749 ft | 8 kts | 274° |
| 2026-04-27 18:55 | 42.69526 | 23.40718 | 1742 ft | 7 kts | 296° |
| 2026-04-27 18:55 | 42.69559 | 23.40689 | 1749 ft | 5 kts | 341° |
| 2026-04-27 18:55 | 42.69584 | 23.40699 | 1749 ft | 3 kts | 18° |
| 2026-04-27 18:56 | 42.69594 | 23.40705 | 1749 ft | 0 kts | 30° |
| 2026-04-27 18:57 | 42.69594 | 23.40706 | 1749 ft | 1 kts | 31° |
| 2026-04-27 18:57 | 42.69609 | 23.40725 | 1748 ft | 8 kts | 49° |
| 2026-04-27 18:57 | 42.69661 | 23.40882 | 1744 ft | 19 kts | 72° |
| 2026-04-27 18:58 | 42.69684 | 23.41098 | 1750 ft | 30 kts | 94° |
| 2026-04-27 18:58 | 42.69670 | 23.41352 | 1745 ft | 56 kts | 95° |
| 2026-04-27 18:58 | 42.69597 | 23.42575 | 1748 ft | 133 kts | 94° |
| 2026-04-27 18:58 | 42.69541 | 23.43527 | 1757 ft | 164 kts | 94° |
| 2026-04-27 18:59 | 42.69445 | 23.45066 | 2315 ft | 165 kts | 95° |
| 2026-04-27 18:59 | 42.69338 | 23.46640 | 2954 ft | 168 kts | 96° |
| 2026-04-27 18:59 | 42.69225 | 23.48220 | 3593 ft | 167 kts | 96° |
| 2026-04-27 18:59 | 42.69119 | 23.49754 | 4072 ft | 167 kts | 91° |
| 2026-04-27 19:00 | 42.69386 | 23.51377 | 4286 ft | 190 kts | 70° |
| 2026-04-27 19:00 | 42.69729 | 23.53222 | 4557 ft | 213 kts | 79° |
| 2026-04-27 19:00 | 42.69987 | 23.55327 | 4899 ft | 237 kts | 81° |
| 2026-04-27 19:00 | 42.70244 | 23.57638 | 5264 ft | 261 kts | 81° |
| 2026-04-27 19:01 | 42.70530 | 23.60150 | 5847 ft | 275 kts | 80° |
| 2026-04-27 19:01 | 42.70843 | 23.62759 | 6589 ft | 284 kts | 79° |
| 2026-04-27 19:01 | 42.71180 | 23.65439 | 7346 ft | 290 kts | 78° |
| 2026-04-27 19:01 | 42.71532 | 23.68152 | 8184 ft | 293 kts | 77° |
| 2026-04-27 19:02 | 42.71886 | 23.70850 | 9002 ft | 295 kts | 77° |
| 2026-04-27 19:02 | 42.72249 | 23.73610 | 9842 ft | 298 kts | 76° |
| 2026-04-27 19:02 | 42.72625 | 23.76432 | 10360 ft | 314 kts | 76° |
| 2026-04-27 19:02 | 42.73034 | 23.79456 | 10635 ft | 334 kts | 76° |
| 2026-04-27 19:03 | 42.73459 | 23.82615 | 11240 ft | 342 kts | 77° |
| 2026-04-27 19:03 | 42.73881 | 23.85819 | 11895 ft | 347 kts | 77° |
| 2026-04-27 19:03 | 42.74303 | 23.89057 | 12122 ft | 348 kts | 77° |
| 2026-04-27 19:03 | 42.74582 | 23.91212 | 12168 ft | 348 kts | 77° |
| 2026-04-27 19:04 | 42.75146 | 23.95543 | 12187 ft | 348 kts | 77° |
| 2026-04-27 19:04 | 42.75566 | 23.98775 | 12184 ft | 347 kts | 77° |
| 2026-04-27 19:04 | 42.75986 | 24.02025 | 12192 ft | 348 kts | 77° |
| 2026-04-27 19:04 | 42.76406 | 24.05266 | 12189 ft | 348 kts | 77° |
| 2026-04-27 19:05 | 42.76825 | 24.08507 | 12190 ft | 348 kts | 77° |
| 2026-04-27 19:05 | 42.77244 | 24.11747 | 12196 ft | 348 kts | 78° |
| 2026-04-27 19:05 | 42.77662 | 24.15005 | 12188 ft | 349 kts | 77° |
| 2026-04-27 19:05 | 42.78097 | 24.18348 | 12194 ft | 372 kts | 77° |
| 2026-04-27 19:06 | 42.78619 | 24.21919 | 12187 ft | 395 kts | 76° |
| 2026-04-27 19:06 | 42.79207 | 24.25617 | 12186 ft | 402 kts | 75° |
| 2026-04-27 19:06 | 42.79815 | 24.29339 | 12188 ft | 403 kts | 75° |
| 2026-04-27 19:06 | 42.80422 | 24.33067 | 12196 ft | 404 kts | 75° |
| 2026-04-27 19:07 | 42.81015 | 24.36753 | 12182 ft | 403 kts | 76° |
| 2026-04-27 19:07 | 42.81608 | 24.40489 | 12188 ft | 404 kts | 76° |
| 2026-04-27 19:07 | 42.82194 | 24.44222 | 12189 ft | 404 kts | 75° |
| 2026-04-27 19:07 | 42.82776 | 24.47974 | 12340 ft | 407 kts | 76° |
| 2026-04-27 19:08 | 42.83356 | 24.51754 | 13081 ft | 408 kts | 76° |
| 2026-04-27 19:08 | 42.83938 | 24.55554 | 13749 ft | 411 kts | 76° |
| 2026-04-27 19:08 | 42.84524 | 24.59367 | 14342 ft | 413 kts | 76° |
| 2026-04-27 19:08 | 42.85117 | 24.63221 | 14875 ft | 417 kts | 77° |
| 2026-04-27 19:09 | 42.85718 | 24.67112 | 15375 ft | 421 kts | 77° |
| 2026-04-27 19:09 | 42.86323 | 24.71036 | 15887 ft | 425 kts | 77° |
| 2026-04-27 19:09 | 42.86933 | 24.74992 | 16391 ft | 429 kts | 77° |
| 2026-04-27 19:09 | 42.87546 | 24.78992 | 16879 ft | 433 kts | 77° |
| 2026-04-27 19:10 | 42.88160 | 24.83018 | 17364 ft | 436 kts | 77° |
| 2026-04-27 19:10 | 42.88779 | 24.87085 | 17840 ft | 439 kts | 77° |
| 2026-04-27 19:10 | 42.89403 | 24.91186 | 18296 ft | 443 kts | 77° |
| 2026-04-27 19:10 | 42.89817 | 24.93914 | 18569 ft | 445 kts | 77° |
| 2026-04-27 19:11 | 42.90655 | 24.99471 | 19082 ft | 449 kts | 77° |
| 2026-04-27 19:11 | 42.91286 | 25.03658 | 19466 ft | 452 kts | 77° |
| 2026-04-27 19:11 | 42.91919 | 25.07860 | 19829 ft | 454 kts | 77° |
| 2026-04-27 19:11 | 42.92557 | 25.12097 | 20184 ft | 457 kts | 77° |
| 2026-04-27 19:12 | 42.93192 | 25.16353 | 20523 ft | 460 kts | 77° |
| 2026-04-27 19:12 | 42.93823 | 25.20592 | 20844 ft | 463 kts | 77° |
| 2026-04-27 19:12 | 42.94471 | 25.24960 | 21173 ft | 465 kts | 77° |
| 2026-04-27 19:12 | 42.95112 | 25.29302 | 21482 ft | 468 kts | 77° |
| 2026-04-27 19:13 | 42.95750 | 25.33617 | 21781 ft | 470 kts | 77° |
| 2026-04-27 19:13 | 42.96397 | 25.37994 | 22087 ft | 473 kts | 77° |
| 2026-04-27 19:13 | 42.97051 | 25.42406 | 22385 ft | 475 kts | 77° |
| 2026-04-27 19:13 | 42.97704 | 25.46845 | 22675 ft | 477 kts | 77° |
| 2026-04-27 19:14 | 42.98357 | 25.51310 | 22957 ft | 480 kts | 78° |
| 2026-04-27 19:14 | 42.99010 | 25.55794 | 23231 ft | 482 kts | 78° |
| 2026-04-27 19:14 | 42.99663 | 25.60292 | 23492 ft | 484 kts | 78° |
| 2026-04-27 19:14 | 43.00315 | 25.64819 | 23742 ft | 486 kts | 78° |
| 2026-04-27 19:15 | 43.00971 | 25.69370 | 23940 ft | 489 kts | 78° |
| 2026-04-27 19:15 | 43.01626 | 25.73936 | 24146 ft | 490 kts | 78° |
| 2026-04-27 19:15 | 43.02281 | 25.78512 | 24350 ft | 492 kts | 78° |
| 2026-04-27 19:15 | 43.02931 | 25.83047 | 24538 ft | 493 kts | 78° |
| 2026-04-27 19:16 | 43.03592 | 25.87653 | 24726 ft | 495 kts | 78° |
| 2026-04-27 19:16 | 43.04040 | 25.90772 | 24845 ft | 496 kts | 78° |
| 2026-04-27 19:16 | 43.04917 | 25.96901 | 25055 ft | 497 kts | 78° |
| 2026-04-27 19:16 | 43.05577 | 26.01551 | 25209 ft | 498 kts | 78° |
| 2026-04-27 19:17 | 43.06233 | 26.06196 | 25360 ft | 499 kts | 78° |
| 2026-04-27 19:17 | 43.06887 | 26.10865 | 25476 ft | 500 kts | 78° |
| 2026-04-27 19:17 | 43.07538 | 26.15544 | 25606 ft | 501 kts | 78° |
| 2026-04-27 19:17 | 43.08188 | 26.20224 | 25749 ft | 502 kts | 78° |
| 2026-04-27 19:18 | 43.08834 | 26.24924 | 25868 ft | 503 kts | 78° |
| 2026-04-27 19:18 | 43.09480 | 26.29624 | 25994 ft | 503 kts | 78° |
| 2026-04-27 19:18 | 43.10133 | 26.34316 | 26146 ft | 503 kts | 78° |
| 2026-04-27 19:18 | 43.10794 | 26.39042 | 26197 ft | 505 kts | 78° |
| 2026-04-27 19:19 | 43.11454 | 26.43770 | 26192 ft | 506 kts | 78° |
| 2026-04-27 19:19 | 43.12112 | 26.48527 | 26192 ft | 507 kts | 78° |
| 2026-04-27 19:19 | 43.12759 | 26.53265 | 26194 ft | 507 kts | 78° |
| 2026-04-27 19:19 | 43.13403 | 26.58005 | 26205 ft | 507 kts | 78° |
| 2026-04-27 19:20 | 43.14043 | 26.62728 | 26205 ft | 507 kts | 78° |
| 2026-04-27 19:20 | 43.14677 | 26.67427 | 26210 ft | 507 kts | 78° |
| 2026-04-27 19:20 | 43.15325 | 26.72243 | 26204 ft | 508 kts | 78° |
| 2026-04-27 19:20 | 43.15957 | 26.76948 | 26206 ft | 508 kts | 78° |
| 2026-04-27 19:21 | 43.16600 | 26.81756 | 26211 ft | 506 kts | 79° |
| 2026-04-27 19:21 | 43.17221 | 26.86430 | 26212 ft | 506 kts | 79° |
| 2026-04-27 19:21 | 43.17853 | 26.91185 | 26213 ft | 506 kts | 79° |
| 2026-04-27 19:21 | 43.18485 | 26.95924 | 26221 ft | 506 kts | 79° |
| 2026-04-27 19:22 | 43.19112 | 27.00634 | 25708 ft | 497 kts | 79° |
| 2026-04-27 19:22 | 43.19715 | 27.05227 | 24387 ft | 485 kts | 79° |
| 2026-04-27 19:22 | 43.20457 | 27.09689 | 22940 ft | 476 kts | 72° |
| 2026-04-27 19:22 | 43.21140 | 27.14086 | 21567 ft | 468 kts | 87° |
| 2026-04-27 19:23 | 43.20804 | 27.18402 | 20379 ft | 457 kts | 106° |
| 2026-04-27 19:23 | 43.19654 | 27.22403 | 19173 ft | 447 kts | 119° |
| 2026-04-27 19:23 | 43.18000 | 27.25943 | 17951 ft | 438 kts | 130° |
| 2026-04-27 19:23 | 43.15921 | 27.28921 | 16710 ft | 427 kts | 142° |
| 2026-04-27 19:24 | 43.13473 | 27.31132 | 15551 ft | 417 kts | 156° |
| 2026-04-27 19:24 | 43.10787 | 27.32442 | 14440 ft | 406 kts | 169° |
| 2026-04-27 19:24 | 43.08016 | 27.32857 | 13267 ft | 397 kts | 182° |
| 2026-04-27 19:24 | 43.05300 | 27.32459 | 12027 ft | 388 kts | 194° |
| 2026-04-27 19:25 | 43.02756 | 27.31337 | 10802 ft | 381 kts | 206° |
| 2026-04-27 19:25 | 43.00472 | 27.29580 | 9536 ft | 374 kts | 218° |
| 2026-04-27 19:25 | 42.98596 | 27.27207 | 8292 ft | 364 kts | 234° |
| 2026-04-27 19:25 | 42.97350 | 27.24238 | 7519 ft | 358 kts | 252° |
| 2026-04-27 19:26 | 42.96821 | 27.20936 | 7202 ft | 355 kts | 269° |
| 2026-04-27 19:26 | 42.97016 | 27.17642 | 7041 ft | 352 kts | 285° |
| 2026-04-27 19:26 | 42.97915 | 27.14607 | 6965 ft | 335 kts | 302° |
| 2026-04-27 19:26 | 42.99326 | 27.12217 | 6988 ft | 317 kts | 317° |
| 2026-04-27 19:27 | 43.01106 | 27.10482 | 6989 ft | 315 kts | 332° |
| 2026-04-27 19:27 | 43.03165 | 27.09460 | 6989 ft | 316 kts | 347° |
| 2026-04-27 19:27 | 43.05362 | 27.09235 | 6988 ft | 320 kts | 2° |
| 2026-04-27 19:27 | 43.07580 | 27.09576 | 6986 ft | 322 kts | 5° |
| 2026-04-27 19:28 | 43.09807 | 27.09940 | 6986 ft | 322 kts | 5° |
| 2026-04-27 19:28 | 43.12030 | 27.10300 | 6986 ft | 321 kts | 4° |
| 2026-04-27 19:28 | 43.14241 | 27.10656 | 6986 ft | 319 kts | 4° |
| 2026-04-27 19:28 | 43.16444 | 27.11009 | 6989 ft | 319 kts | 4° |
| 2026-04-27 19:29 | 43.18652 | 27.11376 | 6987 ft | 320 kts | 6° |
| 2026-04-27 19:29 | 43.20759 | 27.12260 | 6986 ft | 324 kts | 22° |
| 2026-04-27 19:29 | 43.22649 | 27.13976 | 6984 ft | 329 kts | 36° |
| 2026-04-27 19:29 | 43.24426 | 27.15958 | 6989 ft | 330 kts | 37° |
| 2026-04-27 19:30 | 43.26191 | 27.17986 | 6990 ft | 332 kts | 42° |
| 2026-04-27 19:30 | 43.27542 | 27.20549 | 6991 ft | 336 kts | 63° |
| 2026-04-27 19:30 | 43.28156 | 27.23645 | 6993 ft | 340 kts | 84° |
| 2026-04-27 19:30 | 43.28019 | 27.26893 | 6994 ft | 342 kts | 95° |
| 2026-04-27 19:31 | 43.27733 | 27.30128 | 6993 ft | 341 kts | 96° |
| 2026-04-27 19:31 | 43.27442 | 27.33364 | 6933 ft | 339 kts | 96° |
| 2026-04-27 19:31 | 43.27173 | 27.36554 | 6518 ft | 335 kts | 95° |
| 2026-04-27 19:31 | 43.26907 | 27.39744 | 6189 ft | 336 kts | 96° |
| 2026-04-27 19:32 | 43.26637 | 27.42920 | 5753 ft | 333 kts | 96° |
| 2026-04-27 19:32 | 43.26368 | 27.46067 | 5303 ft | 330 kts | 96° |
| 2026-04-27 19:32 | 43.26102 | 27.49184 | 4859 ft | 328 kts | 97° |
| 2026-04-27 19:32 | 43.25840 | 27.52239 | 4416 ft | 324 kts | 97° |
| 2026-04-27 19:33 | 43.25577 | 27.55290 | 3979 ft | 320 kts | 98° |
| 2026-04-27 19:33 | 43.25404 | 27.57300 | 3695 ft | 317 kts | 98° |
| 2026-04-27 19:33 | 43.25060 | 27.61274 | 3125 ft | 309 kts | 98° |
| 2026-04-27 19:33 | 43.24829 | 27.63938 | 2743 ft | 302 kts | 99° |
| 2026-04-27 19:34 | 43.24582 | 27.66766 | 2327 ft | 295 kts | 98° |
| 2026-04-27 19:34 | 43.24342 | 27.69515 | 1923 ft | 282 kts | 99° |
| 2026-04-27 19:34 | 43.24117 | 27.72088 | 1538 ft | 262 kts | 98° |
| 2026-04-27 19:34 | 43.23908 | 27.74471 | 1189 ft | 241 kts | 98° |
| 2026-04-27 19:35 | 43.23718 | 27.76622 | 878 ft | 214 kts | 98° |
| 2026-04-27 19:35 | 43.23549 | 27.78543 | 602 ft | 193 kts | 98° |
| 2026-04-27 19:35 | 43.23396 | 27.80244 | 329 ft | 173 kts | 98° |
| 2026-04-27 19:35 | 43.23263 | 27.81828 | 395 ft | 174 kts | 99° |
| 2026-04-27 19:36 | 43.23111 | 27.83660 | 917 ft | 206 kts | 97° |
| 2026-04-27 19:36 | 43.22930 | 27.85608 | 2002 ft | 209 kts | 111° |
| 2026-04-27 19:36 | 43.22148 | 27.87216 | 2929 ft | 210 kts | 141° |
| 2026-04-27 19:36 | 43.20791 | 27.87906 | 3614 ft | 215 kts | 184° |
| 2026-04-27 19:37 | 43.19396 | 27.87191 | 4291 ft | 220 kts | 222° |
| 2026-04-27 19:37 | 43.18531 | 27.85477 | 5041 ft | 222 kts | 252° |
| 2026-04-27 19:37 | 43.18016 | 27.83420 | 5198 ft | 233 kts | 253° |
| 2026-04-27 19:37 | 43.17509 | 27.81359 | 5069 ft | 224 kts | 253° |
| 2026-04-27 19:38 | 43.17012 | 27.79345 | 5013 ft | 222 kts | 253° |
| 2026-04-27 19:38 | 43.16513 | 27.77331 | 5012 ft | 223 kts | 253° |
| 2026-04-27 19:38 | 43.16015 | 27.75319 | 5011 ft | 223 kts | 253° |
| 2026-04-27 19:38 | 43.15675 | 27.73261 | 5009 ft | 221 kts | 269° |
| 2026-04-27 19:39 | 43.15799 | 27.71194 | 5013 ft | 220 kts | 278° |
| 2026-04-27 19:39 | 43.15991 | 27.69110 | 5010 ft | 221 kts | 278° |
| 2026-04-27 19:39 | 43.16176 | 27.67025 | 5011 ft | 220 kts | 278° |
| 2026-04-27 19:39 | 43.16359 | 27.64943 | 5007 ft | 220 kts | 278° |
| 2026-04-27 19:40 | 43.16539 | 27.62859 | 5005 ft | 220 kts | 278° |
| 2026-04-27 19:40 | 43.16719 | 27.60772 | 5007 ft | 220 kts | 278° |
| 2026-04-27 19:40 | 43.16897 | 27.58679 | 5006 ft | 220 kts | 278° |
| 2026-04-27 19:40 | 43.17076 | 27.56592 | 5007 ft | 220 kts | 277° |
| 2026-04-27 19:41 | 43.17255 | 27.54523 | 5005 ft | 219 kts | 277° |
| 2026-04-27 19:41 | 43.17436 | 27.52454 | 5002 ft | 218 kts | 277° |
| 2026-04-27 19:41 | 43.17616 | 27.50391 | 5002 ft | 218 kts | 277° |
| 2026-04-27 19:41 | 43.18054 | 27.48419 | 4996 ft | 219 kts | 303° |
| 2026-04-27 19:42 | 43.19209 | 27.47088 | 4998 ft | 222 kts | 337° |
| 2026-04-27 19:42 | 43.20733 | 27.46877 | 5005 ft | 226 kts | 6° |
| 2026-04-27 19:42 | 43.22295 | 27.47191 | 5004 ft | 227 kts | 5° |
| 2026-04-27 19:42 | 43.23844 | 27.47481 | 4917 ft | 229 kts | 12° |
| 2026-04-27 19:43 | 43.25203 | 27.48541 | 4790 ft | 230 kts | 47° |
| 2026-04-27 19:43 | 43.25903 | 27.50494 | 4612 ft | 232 kts | 84° |
| 2026-04-27 19:43 | 43.25833 | 27.52700 | 4347 ft | 232 kts | 98° |
| 2026-04-27 19:43 | 43.25623 | 27.54884 | 4043 ft | 230 kts | 99° |
| 2026-04-27 19:44 | 43.25425 | 27.57058 | 3729 ft | 229 kts | 99° |
| 2026-04-27 19:44 | 43.25235 | 27.59232 | 3423 ft | 229 kts | 99° |
| 2026-04-27 19:44 | 43.25049 | 27.61390 | 3111 ft | 227 kts | 99° |
| 2026-04-27 19:44 | 43.24862 | 27.63536 | 2805 ft | 226 kts | 100° |
| 2026-04-27 19:45 | 43.24676 | 27.65674 | 2484 ft | 225 kts | 99° |
| 2026-04-27 19:45 | 43.24493 | 27.67775 | 2179 ft | 216 kts | 99° |
| 2026-04-27 19:45 | 43.24321 | 27.69755 | 1887 ft | 203 kts | 100° |
| 2026-04-27 19:45 | 43.24158 | 27.71613 | 1614 ft | 192 kts | 99° |
| 2026-04-27 19:46 | 43.24001 | 27.73400 | 1376 ft | 181 kts | 99° |
| 2026-04-27 19:46 | 43.23858 | 27.75027 | 1121 ft | 163 kts | 98° |
| 2026-04-27 19:46 | 43.23730 | 27.76487 | 903 ft | 146 kts | 98° |
| 2026-04-27 19:46 | 43.23612 | 27.77824 | 701 ft | 137 kts | 99° |
| 2026-04-27 19:47 | 43.23498 | 27.79110 | 523 ft | 135 kts | 99° |
| 2026-04-27 19:47 | 43.23387 | 27.80380 | 331 ft | 135 kts | 96° |
| 2026-04-27 19:47 | 43.23277 | 27.81585 | 225 ft | 120 kts | 98° |
| 2026-04-27 19:47 | 43.23201 | 27.82462 | 222 ft | 59 kts | 96° |
| 2026-04-27 19:48 | 43.23164 | 27.82888 | 223 ft | 32 kts | 97° |
| 2026-04-27 19:48 | 43.23135 | 27.83181 | 222 ft | 33 kts | 99° |
| 2026-04-27 19:48 | 43.23211 | 27.83287 | 222 ft | 16 kts | 11° |
| 2026-04-27 19:48 | 43.23312 | 27.83309 | 222 ft | 14 kts | 6° |
| 2026-04-27 19:49 | 43.23401 | 27.83324 | 222 ft | 12 kts | 7° |
| 2026-04-27 19:49 | 43.23480 | 27.83334 | 222 ft | 11 kts | 4° |
| 2026-04-27 19:49 | 43.23533 | 27.83292 | 222 ft | 9 kts | 295° |
| 2026-04-27 19:49 | 43.23543 | 27.83216 | 222 ft | 8 kts | 278° |
| 2026-04-27 19:50 | 43.23549 | 27.83100 | 222 ft | 11 kts | 275° |
| 2026-04-27 19:50 | 43.23555 | 27.82990 | 222 ft | 11 kts | 275° |
| 2026-04-27 19:50 | 43.23552 | 27.82924 | 222 ft | 10 kts | 263° |
| 2026-04-27 19:50 | 43.23550 | 27.82836 | 222 ft | 9 kts | 272° |
| 2026-04-27 19:51 | 43.23554 | 27.82760 | 222 ft | 7 kts | 275° |
| 2026-04-27 19:51 | 43.23559 | 27.82693 | 222 ft | 6 kts | 276° |
| 2026-04-27 19:51 | 43.23563 | 27.82637 | 222 ft | 6 kts | 276° |
| 2026-04-27 19:51 | 43.23569 | 27.82590 | 222 ft | 3 kts | 296° |
| 2026-04-27 19:52 | 43.23583 | 27.82595 | 223 ft | 3 kts | 37° |
| 2026-04-27 19:52 | 43.23608 | 27.82663 | 222 ft | 5 kts | 63° |
| 2026-04-27 19:52 | 43.23610 | 27.82668 | 222 ft | 0 kts | 63° |